Time,TemperatureF,DewpointF,PressureIn,WindDirection,WindDirectionDegrees,WindSpeedMPH,WindSpeedGustMPH,Humidity,HourlyPrecipIn,Conditions,Clouds,dailyrainin,SolarRadiationWatts/m^2,SoftwareType,DateUTC
2013-01-19 00:02:00,36.6,25.0,30.52,East,100,0.0,0.0,64,0.00,,,0.00,0,weatherlink.com 1.10,2013-01-19 05:02:00,
2013-01-19 00:17:00,36.3,25.0,30.51,ESE,104,0.0,1.0,64,0.00,,,0.00,0,weatherlink.com 1.10,2013-01-19 05:17:00,
2013-01-19 00:32:00,36.1,25.0,30.51,NE,47,0.0,2.0,64,0.00,,,0.00,0,weatherlink.com 1.10,2013-01-19 05:32:00,
2013-01-19 00:47:00,35.9,25.0,30.51,ENE,70,0.0,2.0,65,0.00,,,0.00,0,weatherlink.com 1.10,2013-01-19 05:47:00,
2013-01-19 01:02:00,35.6,25.0,30.51,East,93,0.0,3.0,65,0.00,,,0.00,0,weatherlink.com 1.10,2013-01-19 06:02:00,
2013-01-19 01:17:00,35.4,25.0,30.51,East,96,0.0,1.0,66,0.00,,,0.00,0,weatherlink.com 1.10,2013-01-19 06:17:00,
2013-01-19 01:32:00,35.1,25.0,30.51,East,96,0.0,0.0,66,0.00,,,0.00,0,weatherlink.com 1.10,2013-01-19 06:32:00,
2013-01-19 01:47:00,34.7,25.0,30.50,ESE,113,0.0,1.0,67,0.00,,,0.00,0,weatherlink.com 1.10,2013-01-19 06:47:00,
2013-01-19 02:02:00,34.5,25.0,30.50,ESE,111,0.0,1.0,67,0.00,,,0.00,0,weatherlink.com 1.10,2013-01-19 07:02:00,
2013-01-19 02:17:00,34.4,24.0,30.50,SE,134,0.0,2.0,67,0.00,,,0.00,0,weatherlink.com 1.10,2013-01-19 07:17:00,
2013-01-19 02:32:00,34.4,24.0,30.50,SE,134,0.0,0.0,67,0.00,,,0.00,0,weatherlink.com 1.10,2013-01-19 07:32:00,
2013-01-19 02:47:00,34.4,24.0,30.50,SE,129,0.0,1.0,67,0.00,,,0.00,0,weatherlink.com 1.10,2013-01-19 07:47:00,
2013-01-19 03:02:00,34.2,24.0,30.50,SE,128,0.0,1.0,67,0.00,,,0.00,0,weatherlink.com 1.10,2013-01-19 08:02:00,
2013-01-19 03:17:00,34.1,24.0,30.49,East,98,0.0,1.0,67,0.00,,,0.00,0,weatherlink.com 1.10,2013-01-19 08:17:00,
2013-01-19 03:32:00,34.0,24.0,30.48,East,99,0.0,1.0,68,0.00,,,0.00,0,weatherlink.com 1.10,2013-01-19 08:32:00,
2013-01-19 03:47:00,33.8,24.0,30.48,ESE,113,0.0,1.0,68,0.00,,,0.00,0,weatherlink.com 1.10,2013-01-19 08:47:00,
2013-01-19 04:02:00,33.6,24.0,30.47,ESE,113,0.0,2.0,69,0.00,,,0.00,0,weatherlink.com 1.10,2013-01-19 09:02:00,
2013-01-19 04:17:00,33.5,25.0,30.47,ESE,118,0.0,2.0,70,0.00,,,0.00,0,weatherlink.com 1.10,2013-01-19 09:17:00,
2013-01-19 04:32:00,33.4,25.0,30.46,ESE,107,0.0,3.0,70,0.00,,,0.00,0,weatherlink.com 1.10,2013-01-19 09:32:00,
2013-01-19 04:47:00,33.3,24.0,30.46,ESE,111,0.0,1.0,70,0.00,,,0.00,0,weatherlink.com 1.10,2013-01-19 09:47:00,
2013-01-19 05:02:00,33.3,24.0,30.46,ESE,105,0.0,5.0,70,0.00,,,0.00,0,weatherlink.com 1.10,2013-01-19 10:02:00,
2013-01-19 05:17:00,33.2,24.0,30.45,ESE,105,0.0,1.0,70,0.00,,,0.00,0,weatherlink.com 1.10,2013-01-19 10:17:00,
2013-01-19 05:32:00,33.1,25.0,30.46,East,81,0.0,3.0,71,0.00,,,0.00,0,weatherlink.com 1.10,2013-01-19 10:32:00,
2013-01-19 05:47:00,33.0,25.0,30.45,ESE,103,0.0,3.0,71,0.00,,,0.00,0,weatherlink.com 1.10,2013-01-19 10:47:00,
2013-01-19 06:02:00,33.0,25.0,30.46,ESE,109,0.0,2.0,71,0.00,,,0.00,0,weatherlink.com 1.10,2013-01-19 11:02:00,
2013-01-19 08:02:00,33.0,25.0,30.47,ESE,105,0.0,1.0,73,0.00,,,0.00,14,weatherlink.com 1.10,2013-01-19 13:02:00,
2013-01-19 08:17:00,33.0,26.0,30.47,ESE,114,0.0,1.0,74,0.00,,,0.00,19,weatherlink.com 1.10,2013-01-19 13:17:00,
2013-01-19 08:33:00,33.4,26.0,30.47,East,98,0.0,5.0,74,0.00,,,0.00,23,weatherlink.com 1.10,2013-01-19 13:33:00,
2013-01-19 08:47:00,34.2,26.0,30.47,East,80,0.0,2.0,73,0.00,,,0.00,26,weatherlink.com 1.10,2013-01-19 13:47:00,
2013-01-19 09:02:00,35.1,27.0,30.48,ENE,78,0.0,2.0,72,0.00,,,0.00,30,weatherlink.com 1.10,2013-01-19 14:02:00,
2013-01-19 09:17:00,36.3,27.0,30.48,East,81,0.0,2.0,70,0.00,,,0.00,32,weatherlink.com 1.10,2013-01-19 14:17:00,
2013-01-19 09:32:00,37.8,28.0,30.48,ESE,105,3.0,3.0,68,0.00,,,0.00,42,weatherlink.com 1.10,2013-01-19 14:32:00,
2013-01-19 09:48:00,40.3,30.0,30.48,ESE,112,0.0,3.0,66,0.00,,,0.00,120,weatherlink.com 1.10,2013-01-19 14:48:00,
2013-01-19 10:03:00,43.1,30.0,30.48,East,96,0.0,3.0,60,0.00,,,0.00,37,weatherlink.com 1.10,2013-01-19 15:03:00,
2013-01-19 10:18:00,45.0,31.0,30.48,ESE,111,0.0,3.0,58,0.00,,,0.00,84,weatherlink.com 1.10,2013-01-19 15:18:00,
2013-01-19 10:33:00,46.2,32.0,30.48,SW,221,0.0,2.0,57,0.00,,,0.00,40,weatherlink.com 1.10,2013-01-19 15:33:00,
2013-01-19 10:48:00,47.4,31.0,30.47,SSW,199,0.0,3.0,53,0.00,,,0.00,39,weatherlink.com 1.10,2013-01-19 15:48:00,
2013-01-19 11:03:00,47.8,29.0,30.46,East,96,0.0,5.0,49,0.00,,,0.00,178,weatherlink.com 1.10,2013-01-19 16:03:00,
2013-01-19 11:18:00,49.0,30.0,30.45,ENE,76,1.0,3.0,49,0.00,,,0.00,171,weatherlink.com 1.10,2013-01-19 16:18:00,
2013-01-19 11:33:00,49.9,31.0,30.45,NNE,22,0.0,4.0,48,0.00,,,0.00,118,weatherlink.com 1.10,2013-01-19 16:33:00,
2013-01-19 11:48:00,50.6,31.0,30.43,NNE,33,1.0,1.0,47,0.00,,,0.00,223,weatherlink.com 1.10,2013-01-19 16:48:00,
2013-01-19 12:03:00,51.2,31.0,30.42,ESE,103,1.0,4.0,46,0.00,,,0.00,146,weatherlink.com 1.10,2013-01-19 17:03:00,
2013-01-19 12:18:00,52.0,32.0,30.41,NE,37,0.0,4.0,46,0.00,,,0.00,313,weatherlink.com 1.10,2013-01-19 17:18:00,
2013-01-19 12:33:00,52.3,32.0,30.39,NNE,26,0.0,3.0,46,0.00,,,0.00,167,weatherlink.com 1.10,2013-01-19 17:33:00,
2013-01-19 12:48:00,53.8,34.0,30.38,South,184,0.0,2.0,47,0.00,,,0.00,54,weatherlink.com 1.10,2013-01-19 17:48:00,
2013-01-19 13:03:00,54.2,34.0,30.37,NNE,23,0.0,6.0,47,0.00,,,0.00,51,weatherlink.com 1.10,2013-01-19 18:03:00,
2013-01-19 13:18:00,55.1,36.0,30.36,NNW,333,0.0,3.0,48,0.00,,,0.00,46,weatherlink.com 1.10,2013-01-19 18:18:00,
2013-01-19 13:33:00,55.2,35.0,30.35,NNW,342,0.0,4.0,47,0.00,,,0.00,54,weatherlink.com 1.10,2013-01-19 18:33:00,
2013-01-19 13:48:00,56.8,38.0,30.33,West,279,1.0,2.0,50,0.00,,,0.00,47,weatherlink.com 1.10,2013-01-19 18:48:00,
2013-01-19 14:04:00,57.0,38.0,30.32,NNE,13,0.0,6.0,50,0.00,,,0.00,123,weatherlink.com 1.10,2013-01-19 19:04:00,
2013-01-19 14:19:00,57.2,39.0,30.32,NNE,16,0.0,5.0,51,0.00,,,0.00,65,weatherlink.com 1.10,2013-01-19 19:19:00,
2013-01-19 14:34:00,57.9,39.0,30.31,NNW,335,0.0,3.0,50,0.00,,,0.00,58,weatherlink.com 1.10,2013-01-19 19:34:00,
2013-01-19 14:49:00,58.2,41.0,30.30,NNW,343,1.0,5.0,53,0.00,,,0.00,70,weatherlink.com 1.10,2013-01-19 19:49:00,
2013-01-19 15:19:00,59.0,42.0,30.29,NW,315,0.0,4.0,54,0.00,,,0.00,53,weatherlink.com 1.10,2013-01-19 20:19:00,
2013-01-19 15:49:00,58.2,42.0,30.29,NW,317,0.0,8.0,55,0.00,,,0.00,102,weatherlink.com 1.10,2013-01-19 20:49:00,
2013-01-19 16:04:00,58.1,41.0,30.29,NNW,342,1.0,6.0,54,0.00,,,0.00,91,weatherlink.com 1.10,2013-01-19 21:04:00,
2013-01-19 16:34:00,56.9,40.0,30.28,North,355,0.0,2.0,54,0.00,,,0.00,81,weatherlink.com 1.10,2013-01-19 21:34:00,
2013-01-19 16:49:00,56.8,40.0,30.28,NNW,331,0.0,3.0,54,0.00,,,0.00,56,weatherlink.com 1.10,2013-01-19 21:49:00,
2013-01-19 17:19:00,56.5,40.0,30.28,NNW,331,0.0,1.0,55,0.00,,,0.00,18,weatherlink.com 1.10,2013-01-19 22:19:00,
2013-01-19 17:34:00,56.1,40.0,30.28,NNW,331,0.0,0.0,56,0.00,,,0.00,5,weatherlink.com 1.10,2013-01-19 22:34:00,
2013-01-19 17:49:00,55.1,41.0,30.28,NNW,331,0.0,0.0,59,0.00,,,0.00,0,weatherlink.com 1.10,2013-01-19 22:49:00,
2013-01-19 18:04:00,54.0,40.0,30.28,NNW,331,0.0,0.0,60,0.00,,,0.00,0,weatherlink.com 1.10,2013-01-19 23:04:00,
2013-01-19 18:19:00,52.8,39.0,30.28,NNW,331,0.0,0.0,61,0.00,,,0.00,0,weatherlink.com 1.10,2013-01-19 23:19:00,
2013-01-19 18:34:00,51.4,40.0,30.28,NNW,331,0.0,0.0,65,0.00,,,0.00,0,weatherlink.com 1.10,2013-01-19 23:34:00,
2013-01-19 19:04:00,49.7,39.0,30.28,NNW,331,0.0,0.0,66,0.00,,,0.00,0,weatherlink.com 1.10,2013-01-20 00:04:00,
2013-01-19 19:19:00,48.8,38.0,30.29,NNW,331,0.0,0.0,67,0.00,,,0.00,0,weatherlink.com 1.10,2013-01-20 00:19:00,
2013-01-19 19:34:00,48.0,38.0,30.29,NNW,331,0.0,0.0,68,0.00,,,0.00,0,weatherlink.com 1.10,2013-01-20 00:34:00,
2013-01-19 19:49:00,47.4,38.0,30.29,NNW,331,0.0,1.0,70,0.00,,,0.00,0,weatherlink.com 1.10,2013-01-20 00:49:00,
2013-01-19 20:04:00,46.8,38.0,30.29,NNW,331,0.0,0.0,72,0.00,,,0.00,0,weatherlink.com 1.10,2013-01-20 01:04:00,
2013-01-19 20:19:00,46.2,38.0,30.28,NNW,331,0.0,0.0,74,0.00,,,0.00,0,weatherlink.com 1.10,2013-01-20 01:19:00,
2013-01-19 20:34:00,46.0,38.0,30.28,NNW,331,0.0,0.0,74,0.00,,,0.00,0,weatherlink.com 1.10,2013-01-20 01:34:00,
2013-01-19 21:04:00,45.6,38.0,30.28,NW,324,0.0,1.0,75,0.00,,,0.00,0,weatherlink.com 1.10,2013-01-20 02:04:00,
2013-01-19 21:19:00,45.3,39.0,30.28,NW,324,0.0,0.0,77,0.00,,,0.00,0,weatherlink.com 1.10,2013-01-20 02:19:00,
2013-01-19 21:34:00,45.0,38.0,30.27,NW,324,0.0,0.0,77,0.00,,,0.00,0,weatherlink.com 1.10,2013-01-20 02:34:00,
2013-01-19 21:49:00,45.0,40.0,30.27,West,263,0.0,3.0,81,0.00,,,0.00,0,weatherlink.com 1.10,2013-01-20 02:49:00,
2013-01-19 22:19:00,43.8,37.0,30.27,West,265,0.0,1.0,78,0.00,,,0.00,0,weatherlink.com 1.10,2013-01-20 03:19:00,
2013-01-19 22:34:00,42.8,37.0,30.27,West,265,0.0,0.0,81,0.00,,,0.00,0,weatherlink.com 1.10,2013-01-20 03:34:00,
2013-01-19 22:49:00,42.3,37.0,30.27,West,265,0.0,0.0,81,0.00,,,0.00,0,weatherlink.com 1.10,2013-01-20 03:49:00,
2013-01-19 23:19:00,42.1,38.0,30.25,West,265,0.0,0.0,85,0.00,,,0.00,0,weatherlink.com 1.10,2013-01-20 04:19:00,
2013-01-19 23:34:00,42.2,38.0,30.25,West,265,0.0,0.0,85,0.00,,,0.00,0,weatherlink.com 1.10,2013-01-20 04:34:00,
2013-01-19 23:49:00,42.3,38.0,30.25,West,265,0.0,0.0,86,0.00,,,0.00,0,weatherlink.com 1.10,2013-01-20 04:49:00,